Time;durP1;ratioP1;P1;durP2;ratioP2;P2;SDS_P1;SDS_P2;PMS_P1;PMS_P2;Temp;Humidity;BMP_temperature;BMP_pressure;BME280_temperature;BME280_humidity;BME280_pressure;Samples;Min_cycle;Max_cycle;Signal;HPM_P1;HPM_P2
2023/05/28 00:01:59;;;;;;;;;;;13.00;1.00;;;;;;4985585;28;19910;-73
2023/05/28 00:04:25;;;;;;;;;;;12.90;1.00;;;;;;5008222;28;19918;-72
2023/05/28 00:06:55;;;;;;;;;;;12.90;1.00;;;;;;5014320;28;19916;-72
2023/05/28 00:09:21;;;;;;;;;;;12.80;1.00;;;;;;5014341;28;19916;-73
2023/05/28 00:11:47;;;;;;;;;;;12.80;1.00;;;;;;5014293;28;19913;-73
2023/05/28 00:14:13;;;;;;;;;;;12.70;1.00;;;;;;5007794;28;20006;-73
2023/05/28 00:17:11;;;;;;;;;;;12.70;1.00;;;;;;5015019;28;20750;-78
2023/05/28 00:19:54;;;;;;;;;;;12.60;1.00;;;;;;5014837;28;19912;-78
2023/05/28 00:22:29;;;;;;;;;;;12.60;1.00;;;;;;5014774;28;19944;-78
2023/05/28 00:25:23;;;;;;;;;;;12.60;1.00;;;;;;5011113;28;19968;-78
2023/05/28 00:27:53;;;;;;;;;;;12.50;1.00;;;;;;5010505;28;19909;-78
2023/05/28 00:30:19;;;;;;;;;;;12.50;1.00;;;;;;5015184;28;19905;-72
2023/05/28 00:32:45;;;;;;;;;;;12.40;1.00;;;;;;5012364;28;19917;-72
2023/05/28 00:35:11;;;;;;;;;;;12.40;1.00;;;;;;5001870;28;19918;-73
2023/05/28 00:37:54;;;;;;;;;;;12.40;1.00;;;;;;5008076;28;19909;-73
2023/05/28 00:40:19;;;;;;;;;;;12.30;1.00;;;;;;5006202;28;19928;-72
2023/05/28 00:42:45;;;;;;;;;;;12.30;1.00;;;;;;5013833;28;19909;-72
2023/05/28 00:45:11;;;;;;;;;;;12.20;1.00;;;;;;5014416;28;19915;-73
2023/05/28 00:47:40;;;;;;;;;;;12.20;1.00;;;;;;5014619;28;20246;-73
2023/05/28 00:50:10;;;;;;;;;;;12.20;1.00;;;;;;5014455;28;20349;-73
2023/05/28 00:52:36;;;;;;;;;;;12.10;1.00;;;;;;5012781;28;19916;-73
2023/05/28 00:55:02;;;;;;;;;;;12.10;1.00;;;;;;5013595;28;19924;-72
2023/05/28 00:57:27;;;;;;;;;;;12.00;1.00;;;;;;5014263;28;20032;-73
2023/05/28 00:59:57;;;;;;;;;;;12.00;1.00;;;;;;5007854;28;19996;-73
2023/05/28 01:02:48;;;;;;;;;;;12.00;1.00;;;;;;5013165;28;19906;-78
2023/05/28 01:05:18;;;;;;;;;;;12.00;1.00;;;;;;5013247;28;19963;-79
2023/05/28 01:07:54;;;;;;;;;;;12.00;1.00;;;;;;5008009;28;19959;-79
2023/05/28 01:10:19;;;;;;;;;;;11.90;1.00;;;;;;5013660;28;19909;-78
2023/05/28 01:12:45;;;;;;;;;;;11.90;1.00;;;;;;5014163;28;19912;-78
2023/05/28 01:15:11;;;;;;;;;;;11.80;1.00;;;;;;5014249;28;19975;-77
2023/05/28 01:17:48;;;;;;;;;;;11.80;1.00;;;;;;5014141;28;19912;-78
2023/05/28 01:20:47;;;;;;;;;;;11.80;1.00;;;;;;5013919;28;19905;-78
2023/05/28 01:23:32;;;;;;;;;;;11.70;1.00;;;;;;5013685;28;19958;-78
2023/05/28 01:25:59;;;;;;;;;;;11.70;1.00;;;;;;5007759;28;19909;-78
2023/05/28 01:28:25;;;;;;;;;;;11.70;1.00;;;;;;5013413;28;19959;-78
2023/05/28 01:30:52;;;;;;;;;;;11.60;1.00;;;;;;5014476;28;19905;-73
2023/05/28 01:33:24;;;;;;;;;;;11.60;1.00;;;;;;5007452;28;19909;-73
2023/05/28 01:35:51;;;;;;;;;;;11.60;1.00;;;;;;5013455;28;19936;-73
2023/05/28 01:38:20;;;;;;;;;;;11.60;1.00;;;;;;5013218;28;20345;-73
2023/05/28 01:40:46;;;;;;;;;;;11.60;1.00;;;;;;5010849;28;19943;-73
2023/05/28 01:43:17;;;;;;;;;;;11.50;1.00;;;;;;5013520;28;19968;-72
2023/05/28 01:45:48;;;;;;;;;;;11.50;1.00;;;;;;5010954;28;19912;-73
2023/05/28 01:48:18;;;;;;;;;;;11.50;1.00;;;;;;5012666;28;19905;-73
2023/05/28 01:50:43;;;;;;;;;;;11.40;1.00;;;;;;5010843;28;19916;-73
2023/05/28 01:53:12;;;;;;;;;;;11.40;1.00;;;;;;5013386;28;19909;-73
2023/05/28 01:55:55;;;;;;;;;;;11.40;1.00;;;;;;5013226;28;20369;-73
2023/05/28 01:58:21;;;;;;;;;;;11.40;1.00;;;;;;5012509;28;20346;-73
2023/05/28 02:03:50;;;;;;;;;;;11.30;1.00;;;;;;5010618;28;19963;-78
2023/05/28 02:06:24;;;;;;;;;;;11.30;1.00;;;;;;5013555;28;19933;-78
2023/05/28 02:09:06;;;;;;;;;;;11.30;1.00;;;;;;5013514;28;19906;-78
2023/05/28 02:12:02;;;;;;;;;;;11.30;1.00;;;;;;5013498;28;19915;-78
2023/05/28 02:18:05;;;;;;;;;;;11.20;1.00;;;;;;5014914;28;19971;-78
2023/05/28 02:20:59;;;;;;;;;;;11.20;1.00;;;;;;4999495;28;19912;-78
2023/05/28 02:23:37;;;;;;;;;;;11.20;1.00;;;;;;5016641;28;20016;-78
2023/05/28 02:26:12;;;;;;;;;;;11.20;1.00;;;;;;5002429;28;20262;-78
2023/05/28 02:28:48;;;;;;;;;;;11.20;1.00;;;;;;5016546;28;19911;-77
2023/05/28 02:31:13;;;;;;;;;;;11.20;1.00;;;;;;5016745;28;19909;-78
2023/05/28 02:33:41;;;;;;;;;;;11.10;1.00;;;;;;5016553;28;19909;-78
2023/05/28 02:36:36;;;;;;;;;;;11.20;1.00;;;;;;5012850;28;19912;-77
2023/05/28 02:39:06;;;;;;;;;;;11.10;1.00;;;;;;5011210;28;19909;-78
2023/05/28 02:41:36;;;;;;;;;;;11.10;1.00;;;;;;5016750;28;19905;-78
2023/05/28 02:44:11;;;;;;;;;;;11.10;1.00;;;;;;5016159;28;19916;-78
2023/05/28 02:46:54;;;;;;;;;;;11.10;1.00;;;;;;4999335;28;19959;-73
2023/05/28 02:49:19;;;;;;;;;;;11.10;1.00;;;;;;5003247;28;19912;-73
2023/05/28 02:51:45;;;;;;;;;;;11.10;1.00;;;;;;5016569;28;19909;-73
2023/05/28 02:54:11;;;;;;;;;;;11.20;1.00;;;;;;5015392;28;19920;-73
2023/05/28 02:56:37;;;;;;;;;;;11.10;1.00;;;;;;5014896;28;19916;-73
2023/05/28 02:59:03;;;;;;;;;;;11.10;1.00;;;;;;5014273;28;19917;-73
2023/05/28 03:01:28;;;;;;;;;;;11.10;1.00;;;;;;5006182;28;19909;-73
2023/05/28 03:03:54;;;;;;;;;;;11.10;1.00;;;;;;5008480;28;19964;-73
2023/05/28 03:06:20;;;;;;;;;;;11.00;1.00;;;;;;5015602;28;19952;-73
2023/05/28 03:08:45;;;;;;;;;;;11.00;1.00;;;;;;4986618;28;19905;-73
2023/05/28 03:11:18;;;;;;;;;;;11.00;1.00;;;;;;5015251;28;19909;-73
2023/05/28 03:13:43;;;;;;;;;;;11.00;1.00;;;;;;5015149;28;19909;-73
2023/05/28 03:16:09;;;;;;;;;;;11.10;1.00;;;;;;5011116;28;19956;-73
2023/05/28 03:18:41;;;;;;;;;;;11.00;1.00;;;;;;5016392;28;19960;-78
2023/05/28 03:24:41;;;;;;;;;;;11.00;1.00;;;;;;5007237;28;19920;-79
2023/05/28 03:27:07;;;;;;;;;;;11.00;1.00;;;;;;4996633;28;20374;-78
2023/05/28 03:29:36;;;;;;;;;;;10.90;1.00;;;;;;5008580;28;19952;-78
2023/05/28 03:32:12;;;;;;;;;;;10.90;1.00;;;;;;5015961;28;19906;-78
2023/05/28 03:35:05;;;;;;;;;;;10.90;1.00;;;;;;5013551;28;19916;-78
2023/05/28 03:40:34;;;;;;;;;;;10.90;1.00;;;;;;5005882;28;19935;-78
2023/05/28 03:43:00;;;;;;;;;;;10.90;1.00;;;;;;5015546;28;20341;-78
2023/05/28 03:45:25;;;;;;;;;;;10.90;1.00;;;;;;4997754;28;19910;-78
2023/05/28 03:48:23;;;;;;;;;;;10.90;1.00;;;;;;5015783;28;19909;-78
2023/05/28 03:51:00;;;;;;;;;;;10.90;1.00;;;;;;5015557;28;19913;-78
2023/05/28 03:53:26;;;;;;;;;;;10.90;1.00;;;;;;5004648;28;19910;-78
2023/05/28 03:55:51;;;;;;;;;;;10.90;1.00;;;;;;5014090;28;19920;-79
2023/05/28 03:58:30;;;;;;;;;;;11.00;1.00;;;;;;5014024;28;20268;-79
2023/05/28 04:01:00;;;;;;;;;;;11.00;1.00;;;;;;5008845;28;19913;-78
2023/05/28 04:03:25;;;;;;;;;;;11.00;1.00;;;;;;4996062;28;19916;-73
2023/05/28 04:05:52;;;;;;;;;;;11.00;1.00;;;;;;5014393;28;20269;-73
2023/05/28 04:08:18;;;;;;;;;;;11.00;1.00;;;;;;4997289;28;20361;-73
2023/05/28 04:10:43;;;;;;;;;;;11.00;1.00;;;;;;5014419;28;19910;-72
2023/05/28 04:13:10;;;;;;;;;;;11.10;1.00;;;;;;5015165;28;19912;-73
2023/05/28 04:15:35;;;;;;;;;;;11.10;1.00;;;;;;5006088;28;19932;-73
2023/05/28 04:18:01;;;;;;;;;;;11.10;1.00;;;;;;5014860;28;20337;-73
2023/05/28 04:20:27;;;;;;;;;;;11.20;1.00;;;;;;5014830;28;19905;-73
2023/05/28 04:22:53;;;;;;;;;;;11.20;1.00;;;;;;5014777;28;19906;-73
2023/05/28 04:25:18;;;;;;;;;;;11.20;1.00;;;;;;5001235;28;19964;-73
2023/05/28 04:27:48;;;;;;;;;;;11.30;1.00;;;;;;5014529;28;19963;-73
2023/05/28 04:30:13;;;;;;;;;;;11.30;1.00;;;;;;5014878;28;19905;-73
2023/05/28 04:32:39;;;;;;;;;;;11.30;1.00;;;;;;5015018;28;19956;-78
2023/05/28 04:35:08;;;;;;;;;;;11.40;1.00;;;;;;5004782;28;19929;-78
2023/05/28 04:37:36;;;;;;;;;;;11.40;1.00;;;;;;5013837;28;20380;-78
2023/05/28 04:40:12;;;;;;;;;;;11.50;1.00;;;;;;5014102;28;19905;-78
2023/05/28 04:42:42;;;;;;;;;;;11.50;1.00;;;;;;5014392;28;19909;-79
2023/05/28 04:45:12;;;;;;;;;;;11.60;1.00;;;;;;5014618;28;20327;-78
2023/05/28 04:47:37;;;;;;;;;;;11.70;1.00;;;;;;4983426;28;20313;-73
2023/05/28 04:50:18;;;;;;;;;;;11.70;1.00;;;;;;5010844;28;19909;-73
2023/05/28 04:52:43;;;;;;;;;;;11.70;1.00;;;;;;5013832;28;19914;-73
2023/05/28 04:55:09;;;;;;;;;;;11.80;1.00;;;;;;5013012;28;19921;-73
2023/05/28 04:57:35;;;;;;;;;;;11.90;1.00;;;;;;5010822;28;19920;-72
2023/05/28 05:00:01;;;;;;;;;;;11.90;1.00;;;;;;5007097;28;20285;-74
2023/05/28 05:02:47;;;;;;;;;;;12.00;1.00;;;;;;4997465;28;19910;-86
2023/05/28 05:08:30;;;;;;;;;;;12.20;1.00;;;;;;5006107;28;19932;-88
2023/05/28 05:13:59;;;;;;;;;;;12.40;1.00;;;;;;5014805;28;19916;-88
2023/05/28 05:23:05;;;;;;;;;;;12.80;1.00;;;;;;5014273;28;19917;-81
2023/05/28 05:25:36;;;;;;;;;;;12.90;1.00;;;;;;5013762;28;20011;-81
2023/05/28 05:34:07;;;;;;;;;;;13.40;1.00;;;;;;4994758;28;20420;-81
2023/05/28 05:36:48;;;;;;;;;;;13.50;1.00;;;;;;5004739;28;19906;-82
2023/05/28 05:39:35;;;;;;;;;;;13.60;1.00;;;;;;5008962;28;19956;-82
2023/05/28 05:42:24;;;;;;;;;;;13.80;1.00;;;;;;5005334;28;20443;-83
2023/05/28 05:45:18;;;;;;;;;;;13.90;1.00;;;;;;5010272;28;20379;-82
2023/05/28 05:51:06;;;;;;;;;;;14.20;1.00;;;;;;5010975;28;19916;-90
2023/05/28 05:53:54;;;;;;;;;;;14.30;1.00;;;;;;5011769;28;19916;-91
2023/05/28 05:56:20;;;;;;;;;;;14.50;1.00;;;;;;5014655;28;19920;-91
2023/05/28 05:58:45;;;;;;;;;;;14.60;1.00;;;;;;5015026;28;19909;-90
2023/05/28 06:01:16;;;;;;;;;;;14.70;1.00;;;;;;5016352;28;19909;-90
2023/05/28 06:03:41;;;;;;;;;;;14.90;1.00;;;;;;4998936;28;19913;-90
2023/05/28 06:06:07;;;;;;;;;;;15.00;1.00;;;;;;4998016;28;19905;-90
2023/05/28 06:08:33;;;;;;;;;;;15.10;1.00;;;;;;5001152;28;19905;-90
2023/05/28 06:10:58;;;;;;;;;;;15.20;1.00;;;;;;5000880;28;19936;-91
2023/05/28 06:13:24;;;;;;;;;;;15.30;1.00;;;;;;4999418;28;19905;-90
2023/05/28 06:15:54;;;;;;;;;;;15.40;1.00;;;;;;4998720;28;19964;-90
2023/05/28 06:18:21;;;;;;;;;;;15.50;1.00;;;;;;4999724;28;19941;-90
2023/05/28 06:20:49;;;;;;;;;;;15.60;1.00;;;;;;5001466;28;19909;-90
2023/05/28 06:23:18;;;;;;;;;;;15.80;1.00;;;;;;5004067;28;19918;-90
2023/05/28 06:26:01;;;;;;;;;;;15.90;1.00;;;;;;4987285;28;19952;-91
2023/05/28 06:28:54;;;;;;;;;;;16.00;1.00;;;;;;4988913;28;19906;-91
2023/05/28 06:31:19;;;;;;;;;;;16.10;1.00;;;;;;4990198;28;19913;-91
2023/05/28 06:34:01;;;;;;;;;;;16.30;1.00;;;;;;5003496;28;19909;-89
2023/05/28 06:36:27;;;;;;;;;;;16.40;1.00;;;;;;5003783;28;19905;-89
2023/05/28 06:38:52;;;;;;;;;;;16.50;1.00;;;;;;5014116;28;20329;-89
2023/05/28 06:41:18;;;;;;;;;;;16.70;1.00;;;;;;5015723;28;19909;-90
2023/05/28 06:43:43;;;;;;;;;;;16.80;1.00;;;;;;4997048;28;19960;-89
2023/05/28 06:46:12;;;;;;;;;;;17.00;1.00;;;;;;4996648;28;19909;-89
2023/05/28 06:48:37;;;;;;;;;;;17.10;1.00;;;;;;5015265;28;19909;-89
2023/05/28 06:51:03;;;;;;;;;;;17.20;1.00;;;;;;5013045;28;19959;-89
2023/05/28 06:53:29;;;;;;;;;;;17.30;1.00;;;;;;4996725;28;19916;-90
2023/05/28 06:55:55;;;;;;;;;;;17.40;1.00;;;;;;4994639;28;20366;-89
2023/05/28 06:58:21;;;;;;;;;;;17.50;1.00;;;;;;4998321;28;20047;-89
2023/05/28 07:00:48;;;;;;;;;;;17.60;1.00;;;;;;4995147;28;20011;-89
2023/05/28 07:03:24;;;;;;;;;;;17.80;1.00;;;;;;4991535;28;19910;-89
2023/05/28 07:05:50;;;;;;;;;;;17.90;1.00;;;;;;5015809;28;19940;-89
2023/05/28 07:08:16;;;;;;;;;;;18.00;1.00;;;;;;5010207;28;19984;-89
2023/05/28 07:10:41;;;;;;;;;;;18.00;1.00;;;;;;5012050;28;19925;-89
2023/05/28 07:16:10;;;;;;;;;;;18.20;1.00;;;;;;5014366;28;19913;-88
2023/05/28 07:24:42;;;;;;;;;;;18.50;1.00;;;;;;5007851;28;19916;-89
2023/05/28 07:30:24;;;;;;;;;;;18.70;1.00;;;;;;5016404;28;19912;-87
2023/05/28 07:32:50;;;;;;;;;;;18.80;1.00;;;;;;5012815;28;19905;-87
2023/05/28 07:38:36;;;;;;;;;;;19.00;1.00;;;;;;5007260;28;19967;-87
2023/05/28 07:44:06;;;;;;;;;;;19.30;1.00;;;;;;5007344;28;19963;-88
2023/05/28 07:46:48;;;;;;;;;;;19.40;1.00;;;;;;5002754;28;20272;-88
2023/05/28 07:52:17;;;;;;;;;;;19.60;1.00;;;;;;5013474;28;20051;-87
2023/05/28 07:58:06;;;;;;;;;;;19.80;1.00;;;;;;5013153;28;19916;-88
2023/05/28 08:00:47;;;;;;;;;;;20.00;1.00;;;;;;4959673;28;19924;-88
2023/05/28 08:06:16;;;;;;;;;;;20.20;1.00;;;;;;4957789;28;20442;-84
2023/05/28 08:08:54;;;;;;;;;;;20.40;1.00;;;;;;4973252;28;19909;-84
2023/05/28 08:11:30;;;;;;;;;;;20.50;1.00;;;;;;4959053;28;19913;-83
2023/05/28 08:14:00;;;;;;;;;;;20.50;1.00;;;;;;4974039;28;19916;-83
2023/05/28 08:16:48;;;;;;;;;;;20.70;1.00;;;;;;4973644;28;19993;-83
2023/05/28 08:19:48;;;;;;;;;;;20.80;1.00;;;;;;4967723;28;19910;-84
2023/05/28 08:22:18;;;;;;;;;;;20.90;1.00;;;;;;4974082;28;19909;-84
2023/05/28 08:25:12;;;;;;;;;;;21.10;1.00;;;;;;4973906;28;19910;-84
2023/05/28 08:28:00;;;;;;;;;;;21.00;1.00;;;;;;4978649;28;19960;-83
2023/05/28 08:30:36;;;;;;;;;;;21.10;1.00;;;;;;4953611;28;20037;-84
2023/05/28 08:33:06;;;;;;;;;;;21.20;1.00;;;;;;4958100;28;19906;-87
2023/05/28 08:35:42;;;;;;;;;;;21.30;1.00;;;;;;4962431;28;19906;-84
2023/05/28 08:41:42;;;;;;;;;;;21.40;1.00;;;;;;5008617;28;20027;-86
2023/05/28 08:44:08;;;;;;;;;;;21.50;1.00;;;;;;4997316;28;20470;-85
2023/05/28 08:49:50;;;;;;;;;;;21.70;1.00;;;;;;5015061;28;19912;-85
2023/05/28 08:52:33;;;;;;;;;;;21.80;1.00;;;;;;5014582;28;20312;-80
2023/05/28 08:54:59;;;;;;;;;;;21.90;1.00;;;;;;5013890;28;19913;-79
2023/05/28 08:57:31;;;;;;;;;;;22.00;1.00;;;;;;5014196;28;19914;-80
2023/05/28 09:00:01;;;;;;;;;;;22.10;1.00;;;;;;4995057;28;19936;-80
2023/05/28 09:02:30;;;;;;;;;;;22.20;1.00;;;;;;5005508;28;19909;-79
2023/05/28 09:05:07;;;;;;;;;;;22.30;1.00;;;;;;5002020;28;19917;-80
2023/05/28 09:10:42;;;;;;;;;;;22.60;1.00;;;;;;5014526;28;20364;-84
2023/05/28 09:19:14;;;;;;;;;;;22.90;1.00;;;;;;5014365;28;19911;-85
2023/05/28 09:24:47;;;;;;;;;;;22.90;1.00;;;;;;5013831;28;19916;-83
2023/05/28 09:27:36;;;;;;;;;;;23.00;1.00;;;;;;4999599;28;19944;-84
2023/05/28 09:33:11;;;;;;;;;;;23.20;1.00;;;;;;5017289;28;19932;-84
2023/05/28 09:36:12;;;;;;;;;;;23.50;1.00;;;;;;5018211;28;20349;-84
2023/05/28 09:38:42;;;;;;;;;;;23.60;1.00;;;;;;5000499;28;19905;-84
2023/05/28 09:41:19;;;;;;;;;;;23.70;1.00;;;;;;5000055;28;20357;-82
2023/05/28 09:46:47;;;;;;;;;;;23.90;1.00;;;;;;5017473;28;20277;-83
2023/05/28 09:52:18;;;;;;;;;;;24.20;1.00;;;;;;5010643;28;20277;-80
2023/05/28 09:54:58;;;;;;;;;;;24.30;1.00;;;;;;4997707;28;19960;-80
2023/05/28 09:57:40;;;;;;;;;;;24.30;1.00;;;;;;5001779;28;19933;-79
2023/05/28 10:00:27;;;;;;;;;;;24.40;1.00;;;;;;4991446;28;20348;-80
2023/05/28 10:03:01;;;;;;;;;;;24.40;1.00;;;;;;5003761;28;19949;-81
2023/05/28 10:05:54;;;;;;;;;;;24.50;1.00;;;;;;5001316;28;19913;-80
2023/05/28 10:08:21;;;;;;;;;;;24.50;1.00;;;;;;5016985;28;19916;-80
2023/05/28 10:11:00;;;;;;;;;;;24.60;1.00;;;;;;5017213;28;20369;-80
2023/05/28 10:13:31;;;;;;;;;;;24.70;1.00;;;;;;5015219;28;20284;-80
2023/05/28 10:16:25;;;;;;;;;;;24.80;1.00;;;;;;5008262;28;19914;-80
2023/05/28 10:19:01;;;;;;;;;;;24.80;1.00;;;;;;5004882;28;19955;-80
2023/05/28 10:21:39;;;;;;;;;;;24.90;1.00;;;;;;4998993;28;19910;-84
2023/05/28 10:24:30;;;;;;;;;;;24.90;1.00;;;;;;5016822;28;19952;-79
2023/05/28 10:27:03;;;;;;;;;;;25.10;1.00;;;;;;5004844;28;19909;-80
2023/05/28 10:29:37;;;;;;;;;;;25.20;1.00;;;;;;5015330;28;20365;-79
2023/05/28 10:32:06;;;;;;;;;;;25.30;1.00;;;;;;5005111;28;19909;-79
2023/05/28 10:34:32;;;;;;;;;;;25.30;1.00;;;;;;4995599;28;19928;-80
2023/05/28 10:37:30;;;;;;;;;;;25.30;1.00;;;;;;5016391;28;20353;-84
2023/05/28 10:40:00;;;;;;;;;;;25.30;1.00;;;;;;5003260;28;19920;-83
2023/05/28 10:42:26;;;;;;;;;;;25.40;1.00;;;;;;4999716;28;20372;-84
2023/05/28 10:45:24;;;;;;;;;;;25.50;1.00;;;;;;5007213;28;19913;-85
2023/05/28 10:48:00;;;;;;;;;;;25.60;1.00;;;;;;5016078;28;19912;-84
2023/05/28 10:51:03;;;;;;;;;;;25.80;1.00;;;;;;4994851;28;19992;-84
2023/05/28 10:53:48;;;;;;;;;;;25.90;1.00;;;;;;4962830;28;20322;-85
2023/05/28 10:56:25;;;;;;;;;;;25.90;1.00;;;;;;4973425;28;20001;-84
2023/05/28 10:58:50;;;;;;;;;;;26.00;1.00;;;;;;4974377;28;20838;-83
2023/05/28 11:01:43;;;;;;;;;;;26.10;1.00;;;;;;4952281;28;19921;-84
2023/05/28 11:04:30;;;;;;;;;;;26.30;1.00;;;;;;4973424;28;19914;-84
2023/05/28 11:06:56;;;;;;;;;;;26.30;1.00;;;;;;4974004;28;19997;-84
2023/05/28 11:09:31;;;;;;;;;;;26.40;1.00;;;;;;4971361;28;19992;-84
2023/05/28 11:12:19;;;;;;;;;;;26.40;1.00;;;;;;4972672;28;19925;-83
2023/05/28 11:15:19;;;;;;;;;;;26.40;1.00;;;;;;4971260;28;19914;-83
2023/05/28 11:18:19;;;;;;;;;;;26.50;1.00;;;;;;4958716;28;19917;-86
2023/05/28 11:21:18;;;;;;;;;;;26.50;1.00;;;;;;4971234;28;20427;-85
2023/05/28 11:23:58;;;;;;;;;;;26.60;1.00;;;;;;4969099;28;19957;-85
2023/05/28 11:26:24;;;;;;;;;;;26.60;1.00;;;;;;4959821;28;20453;-85
2023/05/28 11:28:55;;;;;;;;;;;26.60;1.00;;;;;;5011360;28;20060;-85
2023/05/28 11:31:48;;;;;;;;;;;26.70;1.00;;;;;;5014016;28;20892;-85
2023/05/28 11:34:49;;;;;;;;;;;26.70;1.00;;;;;;4993818;28;19914;-89
2023/05/28 11:37:32;;;;;;;;;;;26.70;1.00;;;;;;5002352;28;19969;-86
2023/05/28 11:39:59;;;;;;;;;;;26.60;1.00;;;;;;5010186;28;20435;-81
2023/05/28 11:42:26;;;;;;;;;;;26.70;1.00;;;;;;4995849;28;19916;-81
2023/05/28 11:44:52;;;;;;;;;;;26.70;1.00;;;;;;5014750;28;19913;-85
2023/05/28 11:47:49;;;;;;;;;;;26.80;1.00;;;;;;5011398;28;20320;-85
2023/05/28 11:50:48;;;;;;;;;;;26.80;1.00;;;;;;5010491;28;19913;-84
2023/05/28 11:53:51;;;;;;;;;;;26.90;1.00;;;;;;5014105;28;19913;-89
2023/05/28 11:56:19;;;;;;;;;;;27.00;1.00;;;;;;4929105;29;19910;-90
2023/05/28 11:59:01;;;;;;;;;;;27.00;1.00;;;;;;4931190;29;20433;-88
2023/05/28 12:01:37;;;;;;;;;;;26.90;1.00;;;;;;4944361;29;20355;-88
2023/05/28 12:04:23;;;;;;;;;;;27.00;1.00;;;;;;4933832;29;19921;-86
2023/05/28 12:09:49;;;;;;;;;;;27.20;1.00;;;;;;4937996;29;19906;-86
2023/05/28 12:12:14;;;;;;;;;;;27.30;1.00;;;;;;4928115;29;19906;-87
2023/05/28 12:15:00;;;;;;;;;;;27.40;1.00;;;;;;4942152;29;19914;-86
2023/05/28 12:20:39;;;;;;;;;;;27.40;1.00;;;;;;4954900;29;19944;-85
2023/05/28 12:23:20;;;;;;;;;;;27.40;1.00;;;;;;4950585;28;20647;-86
2023/05/28 12:25:49;;;;;;;;;;;27.40;1.00;;;;;;4952796;29;20371;-86
2023/05/28 12:28:20;;;;;;;;;;;27.30;1.00;;;;;;4941389;29;19911;-91
2023/05/28 12:30:54;;;;;;;;;;;27.50;1.00;;;;;;4977142;28;20307;-82
2023/05/28 12:33:42;;;;;;;;;;;27.60;1.00;;;;;;5010550;28;19916;-84
2023/05/28 12:36:08;;;;;;;;;;;27.50;1.00;;;;;;5014404;28;19916;-84
2023/05/28 12:38:43;;;;;;;;;;;27.70;1.00;;;;;;5011215;28;19910;-86
2023/05/28 12:41:19;;;;;;;;;;;27.80;1.00;;;;;;4996873;28;19905;-83
2023/05/28 12:43:49;;;;;;;;;;;27.80;1.00;;;;;;4992116;28;19913;-85
2023/05/28 12:46:19;;;;;;;;;;;27.80;1.00;;;;;;4992809;28;19960;-87
2023/05/28 12:48:44;;;;;;;;;;;27.90;1.00;;;;;;4993967;28;20012;-87
2023/05/28 12:51:13;;;;;;;;;;;28.10;1.00;;;;;;5002856;28;20048;-85
2023/05/28 12:56:49;;;;;;;;;;;28.40;1.00;;;;;;5011723;28;20379;-84
2023/05/28 12:59:27;;;;;;;;;;;28.40;1.00;;;;;;4988412;28;20500;-84
2023/05/28 13:01:54;;;;;;;;;;;28.40;1.00;;;;;;4995736;28;19917;-84
2023/05/28 13:10:26;;;;;;;;;;;28.50;1.00;;;;;;5014539;28;19920;-86
2023/05/28 13:13:07;;;;;;;;;;;28.40;1.00;;;;;;4980140;28;19910;-88
2023/05/28 13:18:26;;;;;;;;;;;28.30;1.00;;;;;;5012278;28;19929;-85
2023/05/28 13:21:13;;;;;;;;;;;28.40;1.00;;;;;;5009375;28;19932;-86
2023/05/28 13:29:44;;;;;;;;;;;28.70;1.00;;;;;;5013523;28;19936;-78
2023/05/28 13:32:10;;;;;;;;;;;28.70;1.00;;;;;;5013841;28;19913;-78
2023/05/28 13:34:38;;;;;;;;;;;28.70;1.00;;;;;;5013551;28;19913;-78
2023/05/28 13:37:32;;;;;;;;;;;28.80;1.00;;;;;;5013739;28;20051;-78
2023/05/28 13:39:58;;;;;;;;;;;28.80;1.00;;;;;;5013812;28;19917;-74
2023/05/28 13:42:24;;;;;;;;;;;28.90;1.00;;;;;;5011580;28;19909;-75
2023/05/28 13:44:50;;;;;;;;;;;29.00;1.00;;;;;;5010271;28;20384;-74
2023/05/28 13:47:16;;;;;;;;;;;28.90;1.00;;;;;;5012783;28;20365;-74
2023/05/28 13:49:41;;;;;;;;;;;28.90;1.00;;;;;;5005822;28;19924;-73
2023/05/28 13:52:07;;;;;;;;;;;29.00;1.00;;;;;;5008346;28;19942;-74
2023/05/28 13:54:49;;;;;;;;;;;29.10;1.00;;;;;;5009695;28;19960;-76
2023/05/28 13:57:37;;;;;;;;;;;29.10;1.00;;;;;;5010733;28;19909;-77
2023/05/28 14:00:06;;;;;;;;;;;29.20;1.00;;;;;;4993957;28;19913;-77
2023/05/28 14:02:32;;;;;;;;;;;29.20;1.00;;;;;;5007909;28;19920;-77
2023/05/28 14:05:01;;;;;;;;;;;29.20;1.00;;;;;;5009367;28;19913;-76
2023/05/28 14:07:37;;;;;;;;;;;29.40;1.00;;;;;;5010193;28;19916;-77
2023/05/28 14:10:03;;;;;;;;;;;29.50;1.00;;;;;;5011607;28;20391;-74
2023/05/28 14:12:32;;;;;;;;;;;29.60;1.00;;;;;;5009908;28;19933;-72
2023/05/28 14:14:58;;;;;;;;;;;29.70;1.00;;;;;;4991170;28;20310;-74
2023/05/28 14:17:25;;;;;;;;;;;29.70;1.00;;;;;;4995834;28;20396;-78
2023/05/28 14:22:53;;;;;;;;;;;29.90;1.00;;;;;;5014031;28;20391;-79
2023/05/28 14:25:19;;;;;;;;;;;30.00;1.00;;;;;;5006009;28;19948;-76
2023/05/28 14:27:45;;;;;;;;;;;29.80;1.00;;;;;;5007010;28;20548;-77
2023/05/28 14:30:11;;;;;;;;;;;29.80;1.00;;;;;;5012600;28;19912;-77
2023/05/28 14:32:37;;;;;;;;;;;29.80;1.00;;;;;;5015322;28;20004;-77
2023/05/28 14:35:02;;;;;;;;;;;29.90;1.00;;;;;;5015309;28;19905;-77
2023/05/28 14:37:45;;;;;;;;;;;29.80;1.00;;;;;;5016562;28;19910;-77
2023/05/28 14:40:25;;;;;;;;;;;29.80;1.00;;;;;;5002291;28;19905;-78
2023/05/28 14:43:07;;;;;;;;;;;29.80;1.00;;;;;;5013063;28;20301;-78
2023/05/28 14:45:37;;;;;;;;;;;29.80;1.00;;;;;;5010846;28;19917;-78
2023/05/28 14:48:19;;;;;;;;;;;29.90;1.00;;;;;;5016125;28;19947;-78
2023/05/28 14:51:19;;;;;;;;;;;29.90;1.00;;;;;;5016252;28;19907;-77
2023/05/28 14:54:07;;;;;;;;;;;30.00;1.00;;;;;;5013956;28;19949;-79
2023/05/28 14:56:43;;;;;;;;;;;30.10;1.00;;;;;;5006670;28;20009;-79
2023/05/28 14:59:08;;;;;;;;;;;30.20;1.00;;;;;;5008189;28;19909;-79
2023/05/28 15:01:43;;;;;;;;;;;30.20;1.00;;;;;;5006883;28;19913;-78
2023/05/28 15:04:19;;;;;;;;;;;30.10;1.00;;;;;;5010703;28;19963;-78
2023/05/28 15:06:49;;;;;;;;;;;30.40;1.00;;;;;;5011828;28;19959;-78
2023/05/28 15:09:15;;;;;;;;;;;31.40;1.00;;;;;;5015270;28;20419;-78
2023/05/28 15:11:41;;;;;;;;;;;32.70;1.00;;;;;;5011945;28;19910;-74
2023/05/28 15:14:07;;;;;;;;;;;33.60;1.00;;;;;;4994528;28;20324;-74
2023/05/28 15:16:32;;;;;;;;;;;34.80;1.00;;;;;;4995154;28;19919;-75
2023/05/28 15:18:58;;;;;;;;;;;36.20;1.00;;;;;;5012437;28;19958;-74
2023/05/28 15:21:24;;;;;;;;;;;37.30;1.00;;;;;;5009346;28;19909;-74
2023/05/28 15:23:49;;;;;;;;;;;38.50;1.00;;;;;;5011643;28;19914;-74
2023/05/28 15:26:31;;;;;;;;;;;39.80;1.00;;;;;;5014325;28;19948;-79
2023/05/28 15:29:01;;;;;;;;;;;40.60;1.00;;;;;;5011232;28;19959;-78
2023/05/28 15:31:27;;;;;;;;;;;41.50;1.00;;;;;;5013819;28;20840;-76
2023/05/28 15:34:07;;;;;;;;;;;42.40;1.00;;;;;;5003943;28;19909;-79
2023/05/28 15:36:49;;;;;;;;;;;43.30;1.00;;;;;;5010157;28;19996;-78
2023/05/28 15:42:18;;;;;;;;;;;44.10;1.00;;;;;;5007944;28;20067;-74
2023/05/28 15:44:44;;;;;;;;;;;44.50;1.00;;;;;;5006785;28;19913;-75
2023/05/28 15:47:10;;;;;;;;;;;44.90;1.00;;;;;;5009509;28;19936;-74
2023/05/28 15:49:35;;;;;;;;;;;45.00;1.00;;;;;;5002981;28;19914;-75
2023/05/28 15:52:01;;;;;;;;;;;45.50;1.00;;;;;;5009685;28;19909;-74
2023/05/28 15:54:26;;;;;;;;;;;45.90;1.00;;;;;;5014583;28;20258;-75
2023/05/28 15:56:55;;;;;;;;;;;45.70;1.00;;;;;;5010392;28;19932;-77
2023/05/28 15:59:32;;;;;;;;;;;45.90;1.00;;;;;;4996801;28;19905;-77
2023/05/28 16:02:07;;;;;;;;;;;46.40;1.00;;;;;;4996101;28;19963;-78
2023/05/28 16:04:44;;;;;;;;;;;47.00;1.00;;;;;;5013411;28;19996;-78
2023/05/28 16:07:10;;;;;;;;;;;47.40;1.00;;;;;;5013341;28;19909;-78
2023/05/28 16:09:37;;;;;;;;;;;47.40;1.00;;;;;;5013153;28;19920;-78
2023/05/28 16:12:03;;;;;;;;;;;47.70;1.00;;;;;;5008237;28;20495;-77
2023/05/28 16:14:37;;;;;;;;;;;47.80;1.00;;;;;;5004274;28;19910;-78
2023/05/28 16:17:04;;;;;;;;;;;48.00;1.00;;;;;;5014621;28;19920;-78
2023/05/28 16:19:31;;;;;;;;;;;48.00;1.00;;;;;;5014512;28;19906;-77
2023/05/28 16:21:56;;;;;;;;;;;48.20;1.00;;;;;;5013533;28;19905;-77
2023/05/28 16:24:25;;;;;;;;;;;48.10;1.00;;;;;;5012456;28;20376;-78
2023/05/28 16:27:08;;;;;;;;;;;48.10;1.00;;;;;;4993379;28;20250;-78
2023/05/28 16:29:37;;;;;;;;;;;48.30;1.00;;;;;;5001094;28;19929;-78
2023/05/28 16:32:07;;;;;;;;;;;48.20;1.00;;;;;;5010148;28;20277;-78
2023/05/28 16:34:55;;;;;;;;;;;48.10;1.00;;;;;;4999945;28;19921;-78
2023/05/28 16:37:25;;;;;;;;;;;48.00;1.00;;;;;;5013260;28;19913;-78
2023/05/28 16:39:51;;;;;;;;;;;47.90;1.00;;;;;;5001782;28;19909;-78
2023/05/28 16:42:21;;;;;;;;;;;47.80;1.00;;;;;;5012391;28;19964;-87
2023/05/28 16:44:46;;;;;;;;;;;47.30;1.00;;;;;;5010803;28;19936;-90
2023/05/28 16:47:12;;;;;;;;;;;46.80;1.00;;;;;;4994534;28;20349;-86
2023/05/28 16:49:49;;;;;;;;;;;46.80;1.00;;;;;;5013537;28;19909;-85
2023/05/28 16:52:17;;;;;;;;;;;47.00;1.00;;;;;;5004833;28;19916;-87
2023/05/28 16:58:19;;;;;;;;;;;46.90;1.00;;;;;;5012955;28;19932;-88
2023/05/28 17:00:45;;;;;;;;;;;47.00;1.00;;;;;;5009496;28;19914;-87
2023/05/28 17:03:10;;;;;;;;;;;46.80;1.00;;;;;;5013245;28;19909;-86
2023/05/28 17:05:43;;;;;;;;;;;46.50;1.00;;;;;;5012231;28;19921;-87
2023/05/28 17:08:37;;;;;;;;;;;46.50;1.00;;;;;;4994754;28;19910;-87
2023/05/28 17:11:16;;;;;;;;;;;46.00;1.00;;;;;;4991618;28;19917;-86